Etusivu
METAR-TAF:

METAR-TAF

Lentoasemat :

Ronneby, Ruotsi

Ronnebyn lentoasema

Leveyspiiri: 56-16N, Pituuspiiri: 015-17E, korkeus merenpinnasta: 58 m

Tämänhetkinen sää

Tämä raportti tehtiin 35 minuuttia sitten, kello 04.20 UTC
Tuuli 1 kn eri suunnista
Lämpötila 8°C
Kosteus 93%
Ilmanpaine 1016 hPa
Näkyvyys 10 km tai enemmän
Muutamia pilviä 4500 ft:n korkeudessa

METAR: ESDF 230420Z VRB01KT 9999 FEW045 08/07 Q1016

Aika: 06:55 (04:55 UTC)

Sääennuste

Tämä raportti tehtiin 11 tuntia ja 25 minuuttia sitten, kello 17.30 UTC
Ennuste voimassa 22. päivästä klo 18 UTC - 22. päivään klo 22 UTC
Tuuli 8 kn lännestä
Näkyvyys 10 km tai enemmän
ei pilviä alle 1500 m:ssä eikä cumulonimbus-pilviä

TAF: ESDF 221730Z 2218/2222 28008KT CAVOK

Säähavainnot ja -ennusteet yli 4000 lentoasemalta (METAR- ja TAF-raportit).

Käytössä olevat sääasemat on merkitty karttaan keltaisilla ja punaisilla pisteillä.

Aseta hiiri pisteen päälle nähdäksesi sääaseman nimen.

Klikkaa sitten nähdäksesi säähavainnot ja -ennusteet.

Kartan vaihtaminen: klikkaa mustalla rastilla varustettuja vihreitä pisteitä, niin voit zoomata sisään; viivalla varustettua vihreää pistettä, niin voit zoomata ulos tai vihreitä nuolia, niin pääset viereisille kartoille.


METAR-TAF: